WAL456 TNCM-TNCA
Flight info
| Callsign | WAL456 |
|---|---|
| Flight time | 1h 26m |
| Altitude | 32000 |
| Route | MODOR2 DANDE DCT SCAPA SCAPA2A |
| Aircraft | MD82/M-SDFGIRWY/C |
Departure
| Time | 2026-05-08 14:49 |
|---|---|
| Airport | Princess Juliana International Airport (TNCM) |
Arrival
| Time | 2026-05-08 16:15 |
|---|---|
| Airport | Queen Beatrix International Airport (TNCA) |
| Time | Latitude | Longitude | Altitude | Speed | Heading |
|---|---|---|---|---|---|
| 2026-05-08 14:18 | 18.04345 | -63.11300 | 10 ft | 0 kts | 351° |
| 2026-05-08 14:33 | 18.04343 | -63.11299 | 10 ft | 1 kts | 351° |
| 2026-05-08 14:34 | 18.04329 | -63.11297 | 10 ft | 3 kts | 351° |
| 2026-05-08 14:34 | 18.04310 | -63.11294 | 10 ft | 3 kts | 351° |
| 2026-05-08 14:34 | 18.04290 | -63.11291 | 10 ft | 3 kts | 351° |
| 2026-05-08 14:34 | 18.04270 | -63.11287 | 10 ft | 3 kts | 351° |
| 2026-05-08 14:35 | 18.04260 | -63.11286 | 10 ft | 0 kts | 351° |
| 2026-05-08 14:36 | 18.04261 | -63.11286 | 10 ft | 0 kts | 351° |
| 2026-05-08 14:41 | 18.04262 | -63.11286 | 10 ft | 0 kts | 351° |
| 2026-05-08 14:42 | 18.04268 | -63.11289 | 10 ft | 2 kts | 337° |
| 2026-05-08 14:42 | 18.04277 | -63.11319 | 10 ft | 7 kts | 257° |
| 2026-05-08 14:43 | 18.04268 | -63.11346 | 10 ft | 0 kts | 250° |
| 2026-05-08 14:43 | 18.04267 | -63.11346 | 10 ft | 0 kts | 250° |
| 2026-05-08 14:43 | 18.04267 | -63.11348 | 10 ft | 1 kts | 250° |
| 2026-05-08 14:43 | 18.04256 | -63.11381 | 10 ft | 8 kts | 250° |
| 2026-05-08 14:44 | 18.04228 | -63.11462 | 10 ft | 17 kts | 250° |
| 2026-05-08 14:44 | 18.04148 | -63.11585 | 10 ft | 23 kts | 231° |
| 2026-05-08 14:44 | 18.04056 | -63.11722 | 10 ft | 22 kts | 258° |
| 2026-05-08 14:44 | 18.04037 | -63.11856 | 10 ft | 10 kts | 262° |
| 2026-05-08 14:45 | 18.04023 | -63.11926 | 10 ft | 9 kts | 251° |
| 2026-05-08 14:45 | 18.03992 | -63.11969 | 10 ft | 7 kts | 232° |
| 2026-05-08 14:45 | 18.03963 | -63.11987 | 10 ft | 4 kts | 184° |
| 2026-05-08 14:45 | 18.03951 | -63.11985 | 10 ft | 1 kts | 169° |
| 2026-05-08 14:46 | 18.03942 | -63.11979 | 10 ft | 4 kts | 140° |
| 2026-05-08 14:46 | 18.03942 | -63.11965 | 10 ft | 4 kts | 85° |
| 2026-05-08 14:46 | 18.03943 | -63.11951 | 10 ft | 0 kts | 85° |
| 2026-05-08 14:47 | 18.03944 | -63.11941 | 10 ft | 6 kts | 85° |
| 2026-05-08 14:48 | 18.03959 | -63.11802 | 10 ft | 40 kts | 81° |
| 2026-05-08 14:48 | 18.04030 | -63.11306 | 10 ft | 98 kts | 81° |
| 2026-05-08 14:48 | 18.04161 | -63.10391 | 11 ft | 150 kts | 81° |
| 2026-05-08 14:48 | 18.04265 | -63.09208 | 280 ft | 170 kts | 93° |
| 2026-05-08 14:49 | 18.03930 | -63.08014 | 881 ft | 173 kts | 115° |
| 2026-05-08 14:49 | 18.03278 | -63.06992 | 1681 ft | 164 kts | 128° |
| 2026-05-08 14:49 | 18.02478 | -63.06133 | 2298 ft | 165 kts | 141° |
| 2026-05-08 14:49 | 18.01460 | -63.05641 | 2826 ft | 161 kts | 165° |
| 2026-05-08 14:50 | 18.00339 | -63.05622 | 3215 ft | 164 kts | 184° |
| 2026-05-08 14:50 | 17.99184 | -63.05856 | 3489 ft | 175 kts | 189° |
| 2026-05-08 14:50 | 17.97963 | -63.06143 | 3757 ft | 186 kts | 190° |
| 2026-05-08 14:50 | 17.96653 | -63.06434 | 4016 ft | 199 kts | 189° |
| 2026-05-08 14:51 | 17.95262 | -63.06731 | 4256 ft | 215 kts | 189° |
| 2026-05-08 14:51 | 17.93733 | -63.07050 | 4507 ft | 233 kts | 189° |
| 2026-05-08 14:51 | 17.92084 | -63.07390 | 4852 ft | 248 kts | 189° |
| 2026-05-08 14:51 | 17.90350 | -63.07727 | 5251 ft | 259 kts | 189° |
| 2026-05-08 14:52 | 17.88552 | -63.08059 | 5705 ft | 267 kts | 188° |
| 2026-05-08 14:52 | 17.85101 | -63.09496 | 6885 ft | 276 kts | 221° |
| 2026-05-08 14:52 | 17.83851 | -63.11026 | 7509 ft | 278 kts | 233° |
| 2026-05-08 14:53 | 17.82786 | -63.12742 | 8072 ft | 282 kts | 238° |
| 2026-05-08 14:53 | 17.81798 | -63.14538 | 8672 ft | 284 kts | 239° |
| 2026-05-08 14:53 | 17.80820 | -63.16352 | 9239 ft | 287 kts | 239° |
| 2026-05-08 14:53 | 17.79840 | -63.18148 | 9855 ft | 287 kts | 239° |
| 2026-05-08 14:54 | 17.78820 | -63.19975 | 10275 ft | 297 kts | 239° |
| 2026-05-08 14:54 | 17.77723 | -63.21878 | 10442 ft | 313 kts | 238° |
| 2026-05-08 14:54 | 17.76548 | -63.23874 | 10609 ft | 330 kts | 238° |
| 2026-05-08 14:54 | 17.75303 | -63.25963 | 10744 ft | 346 kts | 237° |
| 2026-05-08 14:55 | 17.73977 | -63.28138 | 10856 ft | 361 kts | 237° |
| 2026-05-08 14:55 | 17.72584 | -63.30393 | 11105 ft | 372 kts | 237° |
| 2026-05-08 14:55 | 17.71179 | -63.32671 | 11697 ft | 372 kts | 237° |
| 2026-05-08 14:55 | 17.69777 | -63.34967 | 12227 ft | 374 kts | 237° |
| 2026-05-08 14:56 | 17.68367 | -63.37279 | 12739 ft | 378 kts | 238° |
| 2026-05-08 14:56 | 17.66947 | -63.39603 | 13289 ft | 380 kts | 238° |
| 2026-05-08 14:56 | 17.65514 | -63.41943 | 13813 ft | 382 kts | 238° |
| 2026-05-08 14:56 | 17.64069 | -63.44292 | 14299 ft | 385 kts | 238° |
| 2026-05-08 14:57 | 17.62614 | -63.46650 | 14786 ft | 387 kts | 238° |
| 2026-05-08 14:57 | 17.61142 | -63.49026 | 15262 ft | 389 kts | 238° |
| 2026-05-08 14:57 | 17.59657 | -63.51414 | 15729 ft | 392 kts | 238° |
| 2026-05-08 14:57 | 17.58195 | -63.53794 | 16222 ft | 394 kts | 238° |
| 2026-05-08 14:58 | 17.56696 | -63.56255 | 16663 ft | 397 kts | 238° |
| 2026-05-08 14:58 | 17.55209 | -63.58702 | 17101 ft | 399 kts | 239° |
| 2026-05-08 14:58 | 17.53731 | -63.61134 | 17556 ft | 401 kts | 239° |
| 2026-05-08 14:58 | 17.52225 | -63.63610 | 17949 ft | 404 kts | 239° |
| 2026-05-08 14:59 | 17.50712 | -63.66104 | 18363 ft | 407 kts | 240° |
| 2026-05-08 14:59 | 17.48092 | -63.71391 | 19142 ft | 410 kts | 247° |
| 2026-05-08 14:59 | 17.46940 | -63.74136 | 19524 ft | 412 kts | 248° |
| 2026-05-08 15:00 | 17.45828 | -63.76920 | 19883 ft | 415 kts | 249° |
| 2026-05-08 15:00 | 17.44730 | -63.79723 | 20257 ft | 416 kts | 250° |
| 2026-05-08 15:00 | 17.43628 | -63.82537 | 20601 ft | 419 kts | 249° |
| 2026-05-08 15:00 | 17.42501 | -63.85356 | 20942 ft | 421 kts | 249° |
| 2026-05-08 15:01 | 17.41350 | -63.88187 | 21282 ft | 423 kts | 249° |
| 2026-05-08 15:01 | 17.40180 | -63.90978 | 21646 ft | 425 kts | 248° |
| 2026-05-08 15:01 | 17.38952 | -63.93848 | 21959 ft | 428 kts | 248° |
| 2026-05-08 15:01 | 17.37749 | -63.96654 | 22305 ft | 429 kts | 249° |
| 2026-05-08 15:02 | 17.36531 | -63.99520 | 22604 ft | 431 kts | 249° |
| 2026-05-08 15:02 | 17.35311 | -64.02395 | 22870 ft | 435 kts | 249° |
| 2026-05-08 15:02 | 17.34081 | -64.05289 | 23193 ft | 436 kts | 249° |
| 2026-05-08 15:02 | 17.32842 | -64.08195 | 23495 ft | 438 kts | 249° |
| 2026-05-08 15:03 | 17.31595 | -64.11106 | 23802 ft | 440 kts | 249° |
| 2026-05-08 15:03 | 17.30336 | -64.14036 | 24079 ft | 442 kts | 249° |
| 2026-05-08 15:03 | 17.29070 | -64.16976 | 24431 ft | 443 kts | 249° |
| 2026-05-08 15:03 | 17.27803 | -64.19914 | 24761 ft | 444 kts | 249° |
| 2026-05-08 15:04 | 17.26538 | -64.22859 | 25080 ft | 444 kts | 249° |
| 2026-05-08 15:04 | 17.25287 | -64.25826 | 25397 ft | 445 kts | 249° |
| 2026-05-08 15:04 | 17.24031 | -64.28796 | 25703 ft | 446 kts | 249° |
| 2026-05-08 15:04 | 17.22767 | -64.31757 | 26079 ft | 444 kts | 249° |
| 2026-05-08 15:05 | 17.21506 | -64.34696 | 26554 ft | 441 kts | 249° |
| 2026-05-08 15:05 | 17.20282 | -64.37580 | 27027 ft | 438 kts | 249° |
| 2026-05-08 15:05 | 17.19046 | -64.40484 | 27424 ft | 436 kts | 249° |
| 2026-05-08 15:05 | 17.17817 | -64.43375 | 27867 ft | 433 kts | 249° |
| 2026-05-08 15:06 | 17.16602 | -64.46247 | 28285 ft | 431 kts | 249° |
| 2026-05-08 15:06 | 17.15384 | -64.49098 | 28689 ft | 429 kts | 249° |
| 2026-05-08 15:06 | 17.14159 | -64.51945 | 29080 ft | 426 kts | 249° |
| 2026-05-08 15:06 | 17.12943 | -64.54759 | 29497 ft | 424 kts | 249° |
| 2026-05-08 15:07 | 17.11737 | -64.57562 | 29848 ft | 423 kts | 249° |
| 2026-05-08 15:07 | 17.10535 | -64.60374 | 29975 ft | 425 kts | 249° |
| 2026-05-08 15:07 | 17.08120 | -64.65996 | 29999 ft | 425 kts | 249° |
| 2026-05-08 15:08 | 17.06107 | -64.70696 | 29998 ft | 421 kts | 249° |
| 2026-05-08 15:08 | 17.03320 | -64.77193 | 29998 ft | 422 kts | 249° |
| 2026-05-08 15:09 | 17.00913 | -64.82796 | 29997 ft | 422 kts | 249° |
| 2026-05-08 15:09 | 16.98515 | -64.88378 | 29997 ft | 421 kts | 249° |
| 2026-05-08 15:10 | 16.96114 | -64.93977 | 29998 ft | 423 kts | 249° |
| 2026-05-08 15:10 | 16.93710 | -64.99594 | 29999 ft | 424 kts | 249° |
| 2026-05-08 15:11 | 16.91310 | -65.05219 | 30004 ft | 424 kts | 249° |
| 2026-05-08 15:11 | 16.88884 | -65.10841 | 30004 ft | 424 kts | 249° |
| 2026-05-08 15:12 | 16.86458 | -65.16440 | 30004 ft | 422 kts | 249° |
| 2026-05-08 15:12 | 16.84041 | -65.21992 | 30005 ft | 424 kts | 249° |
| 2026-05-08 15:13 | 16.81603 | -65.27620 | 30004 ft | 425 kts | 249° |
| 2026-05-08 15:13 | 16.79148 | -65.33221 | 30002 ft | 424 kts | 249° |
| 2026-05-08 15:14 | 16.76700 | -65.38855 | 30001 ft | 425 kts | 249° |
| 2026-05-08 15:14 | 16.74246 | -65.44479 | 30001 ft | 426 kts | 249° |
| 2026-05-08 15:15 | 16.71815 | -65.50073 | 30001 ft | 426 kts | 249° |
| 2026-05-08 15:15 | 16.69369 | -65.55699 | 30001 ft | 426 kts | 249° |
| 2026-05-08 15:16 | 16.66911 | -65.61338 | 30001 ft | 427 kts | 248° |
| 2026-05-08 15:16 | 16.64449 | -65.66978 | 29991 ft | 426 kts | 248° |
| 2026-05-08 15:17 | 16.61993 | -65.72613 | 29986 ft | 426 kts | 248° |
| 2026-05-08 15:17 | 16.59548 | -65.78227 | 29984 ft | 425 kts | 248° |
| 2026-05-08 15:18 | 16.57099 | -65.83869 | 29985 ft | 428 kts | 249° |
| 2026-05-08 15:18 | 16.54660 | -65.89496 | 29982 ft | 424 kts | 249° |
| 2026-05-08 15:19 | 16.52222 | -65.95081 | 29984 ft | 428 kts | 248° |
| 2026-05-08 15:19 | 16.49732 | -66.00722 | 29983 ft | 428 kts | 248° |
| 2026-05-08 15:20 | 16.47247 | -66.06378 | 29983 ft | 429 kts | 248° |
| 2026-05-08 15:20 | 16.44740 | -66.12014 | 29982 ft | 429 kts | 248° |
| 2026-05-08 15:21 | 16.42252 | -66.17668 | 29982 ft | 429 kts | 248° |
| 2026-05-08 15:21 | 16.39766 | -66.23308 | 29982 ft | 429 kts | 248° |
| 2026-05-08 15:22 | 16.37274 | -66.28958 | 29984 ft | 429 kts | 248° |
| 2026-05-08 15:22 | 16.34811 | -66.34564 | 29988 ft | 429 kts | 248° |
| 2026-05-08 15:23 | 16.32319 | -66.40216 | 29988 ft | 429 kts | 248° |
| 2026-05-08 15:23 | 16.29826 | -66.45864 | 29988 ft | 429 kts | 248° |
| 2026-05-08 15:24 | 16.27319 | -66.51499 | 29987 ft | 429 kts | 248° |
| 2026-05-08 15:24 | 16.24830 | -66.57102 | 29987 ft | 429 kts | 248° |
| 2026-05-08 15:25 | 16.22334 | -66.62747 | 29989 ft | 429 kts | 248° |
| 2026-05-08 15:25 | 16.19826 | -66.68394 | 29989 ft | 429 kts | 248° |
| 2026-05-08 15:26 | 16.17743 | -66.73094 | 29989 ft | 429 kts | 248° |
| 2026-05-08 15:26 | 16.15241 | -66.78735 | 29989 ft | 429 kts | 248° |
| 2026-05-08 15:27 | 16.12751 | -66.84377 | 29989 ft | 430 kts | 248° |
| 2026-05-08 15:27 | 16.10257 | -66.89988 | 29988 ft | 428 kts | 248° |
| 2026-05-08 15:28 | 16.07746 | -66.95606 | 29989 ft | 430 kts | 248° |
| 2026-05-08 15:28 | 16.05223 | -67.01250 | 29990 ft | 430 kts | 248° |
| 2026-05-08 15:29 | 16.02699 | -67.06892 | 29989 ft | 429 kts | 248° |
| 2026-05-08 15:29 | 16.00177 | -67.12527 | 29990 ft | 431 kts | 248° |
| 2026-05-08 15:30 | 15.97657 | -67.18174 | 29982 ft | 429 kts | 248° |
| 2026-05-08 15:30 | 15.95171 | -67.23761 | 29980 ft | 429 kts | 248° |
| 2026-05-08 15:31 | 15.92604 | -67.29394 | 29979 ft | 430 kts | 248° |
| 2026-05-08 15:31 | 15.90066 | -67.35015 | 29979 ft | 430 kts | 248° |
| 2026-05-08 15:32 | 15.87568 | -67.40618 | 29979 ft | 430 kts | 248° |
| 2026-05-08 15:32 | 15.85048 | -67.46293 | 29979 ft | 430 kts | 248° |
| 2026-05-08 15:33 | 15.81969 | -67.51597 | 29982 ft | 437 kts | 233° |
| 2026-05-08 15:33 | 15.77590 | -67.56049 | 29980 ft | 443 kts | 224° |
| 2026-05-08 15:34 | 15.72794 | -67.60095 | 29978 ft | 444 kts | 223° |
| 2026-05-08 15:34 | 15.68011 | -67.64139 | 29978 ft | 443 kts | 224° |
| 2026-05-08 15:35 | 15.63353 | -67.68309 | 29977 ft | 442 kts | 226° |
| 2026-05-08 15:35 | 15.58761 | -67.72561 | 29977 ft | 442 kts | 226° |
| 2026-05-08 15:36 | 15.54224 | -67.76805 | 29977 ft | 442 kts | 226° |
| 2026-05-08 15:36 | 15.49671 | -67.81072 | 29976 ft | 442 kts | 226° |
| 2026-05-08 15:37 | 15.45068 | -67.85306 | 29974 ft | 441 kts | 226° |
| 2026-05-08 15:37 | 15.40467 | -67.89498 | 29975 ft | 441 kts | 225° |
| 2026-05-08 15:38 | 15.35868 | -67.93719 | 29975 ft | 442 kts | 226° |
| 2026-05-08 15:38 | 15.31260 | -67.97943 | 29974 ft | 442 kts | 226° |
| 2026-05-08 15:39 | 15.26650 | -68.02172 | 29974 ft | 442 kts | 226° |
| 2026-05-08 15:39 | 15.22077 | -68.06357 | 29973 ft | 442 kts | 226° |
| 2026-05-08 15:40 | 15.17462 | -68.10573 | 29973 ft | 442 kts | 226° |
| 2026-05-08 15:40 | 15.12851 | -68.14785 | 29972 ft | 442 kts | 226° |
| 2026-05-08 15:41 | 15.08261 | -68.18985 | 29971 ft | 440 kts | 226° |
| 2026-05-08 15:41 | 15.03656 | -68.23187 | 29971 ft | 441 kts | 226° |
| 2026-05-08 15:42 | 14.99043 | -68.27399 | 29971 ft | 441 kts | 226° |
| 2026-05-08 15:42 | 14.94449 | -68.31600 | 29960 ft | 441 kts | 226° |
| 2026-05-08 15:43 | 14.89884 | -68.35774 | 29969 ft | 441 kts | 226° |
| 2026-05-08 15:43 | 14.85285 | -68.39981 | 29969 ft | 441 kts | 226° |
| 2026-05-08 15:44 | 14.80693 | -68.44180 | 29969 ft | 440 kts | 226° |
| 2026-05-08 15:44 | 14.76098 | -68.48375 | 29968 ft | 441 kts | 226° |
| 2026-05-08 15:45 | 14.71490 | -68.52555 | 29967 ft | 440 kts | 225° |
| 2026-05-08 15:45 | 14.66838 | -68.56683 | 29967 ft | 441 kts | 224° |
| 2026-05-08 15:46 | 14.62031 | -68.60637 | 29972 ft | 442 kts | 222° |
| 2026-05-08 15:46 | 14.57162 | -68.64527 | 29973 ft | 443 kts | 222° |
| 2026-05-08 15:47 | 14.52282 | -68.68405 | 29971 ft | 442 kts | 222° |
| 2026-05-08 15:47 | 14.47451 | -68.72318 | 29971 ft | 442 kts | 223° |
| 2026-05-08 15:48 | 14.40225 | -68.78238 | 29970 ft | 442 kts | 223° |
| 2026-05-08 15:49 | 14.35406 | -68.82190 | 29969 ft | 442 kts | 223° |
| 2026-05-08 15:49 | 14.30586 | -68.86077 | 29967 ft | 442 kts | 223° |
| 2026-05-08 15:50 | 14.25760 | -68.90012 | 29967 ft | 441 kts | 223° |
| 2026-05-08 15:50 | 14.20905 | -68.93938 | 29967 ft | 444 kts | 222° |
| 2026-05-08 15:51 | 14.16058 | -68.97870 | 29957 ft | 443 kts | 223° |
| 2026-05-08 15:51 | 14.11210 | -69.01797 | 29960 ft | 443 kts | 223° |
| 2026-05-08 15:52 | 14.06366 | -69.05732 | 29959 ft | 443 kts | 222° |
| 2026-05-08 15:52 | 14.01550 | -69.09628 | 29959 ft | 443 kts | 222° |
| 2026-05-08 15:53 | 13.96695 | -69.13540 | 29956 ft | 440 kts | 222° |
| 2026-05-08 15:53 | 13.91858 | -69.17444 | 29957 ft | 443 kts | 222° |
| 2026-05-08 15:54 | 13.87005 | -69.21374 | 29956 ft | 444 kts | 222° |
| 2026-05-08 15:54 | 13.82153 | -69.25306 | 29955 ft | 444 kts | 222° |
| 2026-05-08 15:55 | 13.77330 | -69.29216 | 29954 ft | 444 kts | 222° |
| 2026-05-08 15:55 | 13.70069 | -69.35108 | 29953 ft | 443 kts | 222° |
| 2026-05-08 15:56 | 13.65222 | -69.39045 | 29952 ft | 444 kts | 222° |
| 2026-05-08 15:56 | 13.60358 | -69.42948 | 29569 ft | 444 kts | 221° |
| 2026-05-08 15:57 | 13.57947 | -69.44871 | 28962 ft | 442 kts | 221° |
| 2026-05-08 15:57 | 13.55531 | -69.46798 | 28268 ft | 436 kts | 221° |
| 2026-05-08 15:57 | 13.53162 | -69.48697 | 27601 ft | 430 kts | 221° |
| 2026-05-08 15:57 | 13.50807 | -69.50581 | 26987 ft | 423 kts | 221° |
| 2026-05-08 15:58 | 13.48506 | -69.52423 | 26421 ft | 416 kts | 221° |
| 2026-05-08 15:58 | 13.46237 | -69.54244 | 25865 ft | 409 kts | 221° |
| 2026-05-08 15:58 | 13.44013 | -69.56032 | 25311 ft | 403 kts | 221° |
| 2026-05-08 15:58 | 13.41824 | -69.57800 | 24742 ft | 397 kts | 221° |
| 2026-05-08 15:59 | 13.39669 | -69.59547 | 24185 ft | 392 kts | 221° |
| 2026-05-08 15:59 | 13.37540 | -69.61280 | 23631 ft | 387 kts | 221° |
| 2026-05-08 15:59 | 13.35466 | -69.62972 | 23096 ft | 383 kts | 221° |
| 2026-05-08 15:59 | 13.33380 | -69.64655 | 22566 ft | 378 kts | 220° |
| 2026-05-08 16:00 | 13.31320 | -69.66310 | 22040 ft | 374 kts | 220° |
| 2026-05-08 16:00 | 13.29268 | -69.67962 | 21515 ft | 378 kts | 220° |
| 2026-05-08 16:00 | 13.27163 | -69.69660 | 20989 ft | 391 kts | 220° |
| 2026-05-08 16:00 | 13.25008 | -69.71384 | 20451 ft | 390 kts | 220° |
| 2026-05-08 16:01 | 13.22874 | -69.73084 | 19888 ft | 385 kts | 219° |
| 2026-05-08 16:01 | 13.20774 | -69.74759 | 19327 ft | 379 kts | 219° |
| 2026-05-08 16:01 | 13.18710 | -69.76413 | 18783 ft | 374 kts | 219° |
| 2026-05-08 16:01 | 13.16674 | -69.78051 | 18259 ft | 369 kts | 219° |
| 2026-05-08 16:02 | 13.14674 | -69.79665 | 17754 ft | 363 kts | 219° |
| 2026-05-08 16:02 | 13.12698 | -69.81252 | 17251 ft | 358 kts | 219° |
| 2026-05-08 16:02 | 13.10744 | -69.82806 | 16749 ft | 353 kts | 219° |
| 2026-05-08 16:02 | 13.08818 | -69.84338 | 16257 ft | 349 kts | 218° |
| 2026-05-08 16:03 | 13.06880 | -69.85886 | 15766 ft | 361 kts | 218° |
| 2026-05-08 16:03 | 13.04876 | -69.87497 | 15267 ft | 368 kts | 218° |
| 2026-05-08 16:03 | 13.02872 | -69.89096 | 14752 ft | 362 kts | 218° |
| 2026-05-08 16:03 | 13.00894 | -69.90666 | 14225 ft | 356 kts | 218° |
| 2026-05-08 16:04 | 12.98982 | -69.92183 | 13730 ft | 349 kts | 218° |
| 2026-05-08 16:04 | 12.97084 | -69.93693 | 13229 ft | 342 kts | 217° |
| 2026-05-08 16:04 | 12.95226 | -69.95185 | 12748 ft | 335 kts | 217° |
| 2026-05-08 16:04 | 12.93407 | -69.96644 | 12283 ft | 329 kts | 217° |
| 2026-05-08 16:05 | 12.91609 | -69.98086 | 11828 ft | 330 kts | 217° |
| 2026-05-08 16:05 | 12.89745 | -69.99583 | 11375 ft | 348 kts | 217° |
| 2026-05-08 16:05 | 12.87833 | -70.01122 | 10893 ft | 347 kts | 216° |
| 2026-05-08 16:05 | 12.85953 | -70.02623 | 10484 ft | 337 kts | 216° |
| 2026-05-08 16:06 | 12.84150 | -70.04067 | 10308 ft | 321 kts | 216° |
| 2026-05-08 16:06 | 12.82438 | -70.05444 | 10125 ft | 307 kts | 216° |
| 2026-05-08 16:06 | 12.80801 | -70.06747 | 9942 ft | 295 kts | 215° |
| 2026-05-08 16:06 | 12.79200 | -70.08015 | 9550 ft | 290 kts | 215° |
| 2026-05-08 16:07 | 12.77564 | -70.09309 | 8609 ft | 306 kts | 214° |
| 2026-05-08 16:07 | 12.75867 | -70.10655 | 7933 ft | 310 kts | 214° |
| 2026-05-08 16:07 | 12.74163 | -70.12014 | 7408 ft | 308 kts | 215° |
| 2026-05-08 16:07 | 12.72487 | -70.13357 | 6949 ft | 304 kts | 215° |
| 2026-05-08 16:08 | 12.70833 | -70.14686 | 6521 ft | 299 kts | 214° |
| 2026-05-08 16:08 | 12.69212 | -70.15997 | 6118 ft | 294 kts | 215° |
| 2026-05-08 16:08 | 12.67622 | -70.17280 | 5733 ft | 289 kts | 214° |
| 2026-05-08 16:08 | 12.66047 | -70.18532 | 5353 ft | 284 kts | 214° |
| 2026-05-08 16:09 | 12.64435 | -70.19610 | 4967 ft | 276 kts | 200° |
| 2026-05-08 16:09 | 12.63244 | -70.20071 | 4866 ft | 265 kts | 194° |
| 2026-05-08 16:09 | 12.60961 | -70.20662 | 4726 ft | 247 kts | 188° |
| 2026-05-08 16:09 | 12.59312 | -70.20983 | 4623 ft | 235 kts | 183° |
| 2026-05-08 16:10 | 12.57751 | -70.20966 | 4493 ft | 215 kts | 172° |
| 2026-05-08 16:10 | 12.56338 | -70.20816 | 4385 ft | 192 kts | 155° |
| 2026-05-08 16:10 | 12.55362 | -70.20047 | 4239 ft | 171 kts | 124° |
| 2026-05-08 16:10 | 12.54773 | -70.18975 | 4051 ft | 175 kts | 113° |
| 2026-05-08 16:11 | 12.54321 | -70.17810 | 3708 ft | 181 kts | 107° |
| 2026-05-08 16:11 | 12.53992 | -70.16544 | 3331 ft | 187 kts | 111° |
| 2026-05-08 16:11 | 12.53380 | -70.15391 | 2961 ft | 181 kts | 114° |
| 2026-05-08 16:11 | 12.52992 | -70.14184 | 2526 ft | 177 kts | 100° |
| 2026-05-08 16:12 | 12.52815 | -70.12974 | 2188 ft | 166 kts | 98° |
| 2026-05-08 16:12 | 12.52600 | -70.11882 | 2002 ft | 148 kts | 103° |
| 2026-05-08 16:12 | 12.52354 | -70.10896 | 1751 ft | 138 kts | 104° |
| 2026-05-08 16:12 | 12.52136 | -70.09962 | 1493 ft | 133 kts | 103° |
| 2026-05-08 16:13 | 12.51920 | -70.09042 | 1232 ft | 134 kts | 103° |
| 2026-05-08 16:13 | 12.51706 | -70.08136 | 1062 ft | 128 kts | 103° |
| 2026-05-08 16:13 | 12.51503 | -70.07273 | 884 ft | 122 kts | 103° |
| 2026-05-08 16:13 | 12.51310 | -70.06456 | 714 ft | 115 kts | 103° |
| 2026-05-08 16:14 | 12.51116 | -70.05637 | 618 ft | 122 kts | 103° |
| 2026-05-08 16:14 | 12.50908 | -70.04758 | 461 ft | 131 kts | 103° |
| 2026-05-08 16:14 | 12.50763 | -70.04149 | 345 ft | 134 kts | 103° |
| 2026-05-08 16:14 | 12.50537 | -70.03200 | 157 ft | 141 kts | 104° |
| 2026-05-08 16:15 | 12.50310 | -70.02248 | 22 ft | 129 kts | 104° |
| 2026-05-08 16:15 | 12.50139 | -70.01525 | 21 ft | 78 kts | 103° |
| 2026-05-08 16:15 | 12.50047 | -70.01123 | 21 ft | 33 kts | 105° |
| 2026-05-08 16:15 | 12.50047 | -70.01025 | 21 ft | 8 kts | 34° |
| 2026-05-08 16:16 | 12.50068 | -70.01016 | 21 ft | 0 kts | 21° |
| 2026-05-08 16:16 | 12.50070 | -70.01015 | 21 ft | 1 kts | 21° |
| 2026-05-08 16:16 | 12.50092 | -70.01007 | 21 ft | 5 kts | 21° |
| 2026-05-08 16:16 | 12.50140 | -70.00991 | 21 ft | 9 kts | 15° |
| 2026-05-08 16:17 | 12.50215 | -70.00975 | 21 ft | 15 kts | 6° |
| 2026-05-08 16:17 | 12.50310 | -70.00966 | 21 ft | 6 kts | 13° |
| 2026-05-08 16:17 | 12.50322 | -70.00963 | 21 ft | 0 kts | 13° |